RK9E weather

N 318 Helipad
Udo Island, Jejudo, South Korea

Public forecast

Using degrees Celsius for public forecast. Weather courtesy of forecast.io.

METAR (pilot weather report)

Closest report is Jeju International Airport, 23.6 nm (43.6 km) W. Retrieved 2019/07/17 19:31 UTC (10 minutes ago):

RKPC 171931Z 09005KT 060V150 2500 RA BR FEW004 BKN040 OVC100 23/23 Q1008 NOSIG

TAF (pilot weather forecast)

Closest forecast is Jeju International Airport, 23.6 nm (43.6 km) W. Retrieved 2019/07/17 18:00 UTC (2 hours ago):

TAF RKPC 171700Z 1718/1824 06006KT 2500 -RA FEW005 BKN030 OVC100 TN23/1721Z TX27/1805Z TN23/1820Z TEMPO 1718/1721 0600 FG BKN003 BKN050 OVC100 BECMG 1800/1801 08015G25KT 6000 BECMG 1806/1807 08007KT NSW BECMG 1815/1816 16010KT 2800 -RA BECMG 1823/1824 4200 RA